OEPNY LOWW-LMML
Flight info
| Callsign | OEPNY |
|---|---|
| Flight time | 1h 49m |
| Altitude | 45000 |
| Route | STEIN DCT NOHAT DCT KOPRY DCT KATTI DCT MARON L12 GZO |
| Aircraft | C750/M-SBDE3FGHRWXY/S |
Departure
| Time | 2026-05-01 11:33 |
|---|---|
| Airport | Vienna International Airport (LOWW) |
Arrival
| Time | 2026-05-01 13:22 |
|---|---|
| Airport | Malta International Airport (LMML) |
| Time | Latitude | Longitude | Altitude | Speed | Heading |
|---|---|---|---|---|---|
| 2026-05-01 10:57 | 48.12706 | 16.53484 | 620 ft | 0 kts | 295° |
| 2026-05-01 11:03 | 48.12705 | 16.53484 | 605 ft | 0 kts | 295° |
| 2026-05-01 11:06 | 48.12705 | 16.53485 | 605 ft | 0 kts | 295° |
| 2026-05-01 11:17 | 48.12705 | 16.53486 | 606 ft | 0 kts | 295° |
| 2026-05-01 11:20 | 48.12700 | 16.53500 | 622 ft | 4 kts | 288° |
| 2026-05-01 11:20 | 48.12698 | 16.53536 | 615 ft | 4 kts | 241° |
| 2026-05-01 11:20 | 48.12710 | 16.53556 | 610 ft | 0 kts | 206° |
| 2026-05-01 11:24 | 48.12705 | 16.53552 | 606 ft | 2 kts | 206° |
| 2026-05-01 11:25 | 48.12688 | 16.53544 | 611 ft | 3 kts | 188° |
| 2026-05-01 11:25 | 48.12636 | 16.53564 | 606 ft | 5 kts | 207° |
| 2026-05-01 11:25 | 48.12601 | 16.53538 | 618 ft | 6 kts | 206° |
| 2026-05-01 11:26 | 48.12557 | 16.53506 | 606 ft | 8 kts | 206° |
| 2026-05-01 11:26 | 48.12442 | 16.53498 | 609 ft | 8 kts | 145° |
| 2026-05-01 11:26 | 48.12414 | 16.53573 | 615 ft | 9 kts | 115° |
| 2026-05-01 11:27 | 48.12385 | 16.53664 | 606 ft | 10 kts | 116° |
| 2026-05-01 11:27 | 48.12351 | 16.53768 | 606 ft | 12 kts | 115° |
| 2026-05-01 11:27 | 48.12313 | 16.53884 | 610 ft | 13 kts | 116° |
| 2026-05-01 11:27 | 48.12271 | 16.54012 | 608 ft | 14 kts | 116° |
| 2026-05-01 11:28 | 48.12219 | 16.54173 | 614 ft | 20 kts | 116° |
| 2026-05-01 11:28 | 48.12154 | 16.54371 | 610 ft | 21 kts | 116° |
| 2026-05-01 11:28 | 48.12091 | 16.54564 | 614 ft | 20 kts | 115° |
| 2026-05-01 11:29 | 48.11979 | 16.54910 | 606 ft | 17 kts | 116° |
| 2026-05-01 11:29 | 48.11929 | 16.55065 | 609 ft | 16 kts | 116° |
| 2026-05-01 11:29 | 48.11840 | 16.55338 | 608 ft | 13 kts | 116° |
| 2026-05-01 11:30 | 48.11800 | 16.55459 | 613 ft | 14 kts | 116° |
| 2026-05-01 11:30 | 48.11753 | 16.55602 | 610 ft | 17 kts | 116° |
| 2026-05-01 11:30 | 48.11696 | 16.55778 | 610 ft | 20 kts | 116° |
| 2026-05-01 11:30 | 48.11629 | 16.55986 | 613 ft | 25 kts | 116° |
| 2026-05-01 11:31 | 48.11551 | 16.56222 | 616 ft | 25 kts | 116° |
| 2026-05-01 11:31 | 48.11473 | 16.56461 | 608 ft | 25 kts | 116° |
| 2026-05-01 11:31 | 48.11400 | 16.56682 | 607 ft | 20 kts | 116° |
| 2026-05-01 11:31 | 48.11337 | 16.56770 | 606 ft | 9 kts | 193° |
| 2026-05-01 11:32 | 48.11299 | 16.56721 | 618 ft | 7 kts | 258° |
| 2026-05-01 11:32 | 48.11295 | 16.56632 | 606 ft | 12 kts | 266° |
| 2026-05-01 11:32 | 48.11287 | 16.56472 | 606 ft | 20 kts | 266° |
| 2026-05-01 11:32 | 48.11340 | 16.56229 | 610 ft | 37 kts | 296° |
| 2026-05-01 11:33 | 48.11609 | 16.55401 | 611 ft | 133 kts | 296° |
| 2026-05-01 11:33 | 48.12029 | 16.54107 | 1217 ft | 139 kts | 298° |
| 2026-05-01 11:33 | 48.12268 | 16.52636 | 1848 ft | 158 kts | 270° |
| 2026-05-01 11:33 | 48.11980 | 16.50984 | 2498 ft | 173 kts | 248° |
| 2026-05-01 11:34 | 48.11199 | 16.49566 | 3189 ft | 181 kts | 218° |
| 2026-05-01 11:34 | 48.10038 | 16.48777 | 3948 ft | 185 kts | 201° |
| 2026-05-01 11:34 | 48.08847 | 16.48010 | 4709 ft | 188 kts | 205° |
| 2026-05-01 11:34 | 48.07581 | 16.47277 | 5059 ft | 211 kts | 188° |
| 2026-05-01 11:35 | 48.06016 | 16.47449 | 5014 ft | 242 kts | 167° |
| 2026-05-01 11:35 | 48.04231 | 16.47882 | 5184 ft | 275 kts | 169° |
| 2026-05-01 11:35 | 48.02329 | 16.48219 | 6221 ft | 274 kts | 171° |
| 2026-05-01 11:35 | 48.00450 | 16.48533 | 7142 ft | 263 kts | 170° |
| 2026-05-01 11:36 | 47.98604 | 16.48879 | 7972 ft | 272 kts | 169° |
| 2026-05-01 11:36 | 47.96635 | 16.48840 | 8488 ft | 301 kts | 192° |
| 2026-05-01 11:36 | 47.94738 | 16.47488 | 9541 ft | 301 kts | 207° |
| 2026-05-01 11:36 | 47.92900 | 16.45976 | 10278 ft | 313 kts | 206° |
| 2026-05-01 11:37 | 47.90892 | 16.44426 | 10510 ft | 338 kts | 205° |
| 2026-05-01 11:37 | 47.88648 | 16.43004 | 10518 ft | 363 kts | 192° |
| 2026-05-01 11:37 | 47.86125 | 16.42970 | 10988 ft | 361 kts | 167° |
| 2026-05-01 11:37 | 47.83682 | 16.43815 | 11719 ft | 362 kts | 161° |
| 2026-05-01 11:38 | 47.81243 | 16.44857 | 12280 ft | 368 kts | 159° |
| 2026-05-01 11:38 | 47.78762 | 16.45901 | 12914 ft | 373 kts | 161° |
| 2026-05-01 11:38 | 47.76225 | 16.46870 | 13526 ft | 379 kts | 161° |
| 2026-05-01 11:38 | 47.73660 | 16.47847 | 14125 ft | 383 kts | 161° |
| 2026-05-01 11:39 | 47.71077 | 16.48880 | 14710 ft | 386 kts | 160° |
| 2026-05-01 11:39 | 47.68471 | 16.49927 | 15291 ft | 390 kts | 160° |
| 2026-05-01 11:39 | 47.65830 | 16.50961 | 15861 ft | 393 kts | 161° |
| 2026-05-01 11:39 | 47.63170 | 16.51993 | 16446 ft | 396 kts | 161° |
| 2026-05-01 11:40 | 47.60494 | 16.53047 | 17060 ft | 399 kts | 160° |
| 2026-05-01 11:40 | 47.57805 | 16.54107 | 17708 ft | 402 kts | 160° |
| 2026-05-01 11:40 | 47.55083 | 16.55169 | 18340 ft | 406 kts | 160° |
| 2026-05-01 11:40 | 47.52342 | 16.56235 | 18948 ft | 409 kts | 160° |
| 2026-05-01 11:41 | 47.49581 | 16.57314 | 19516 ft | 412 kts | 160° |
| 2026-05-01 11:41 | 47.46794 | 16.58401 | 20106 ft | 416 kts | 160° |
| 2026-05-01 11:41 | 47.43980 | 16.59486 | 20696 ft | 420 kts | 161° |
| 2026-05-01 11:41 | 47.41047 | 16.60059 | 21234 ft | 431 kts | 173° |
| 2026-05-01 11:42 | 47.38043 | 16.60167 | 21818 ft | 434 kts | 174° |
| 2026-05-01 11:42 | 47.35008 | 16.60294 | 22346 ft | 438 kts | 173° |
| 2026-05-01 11:42 | 47.31942 | 16.60450 | 22895 ft | 442 kts | 173° |
| 2026-05-01 11:42 | 47.28860 | 16.60590 | 23454 ft | 446 kts | 173° |
| 2026-05-01 11:43 | 47.25787 | 16.60712 | 23982 ft | 449 kts | 173° |
| 2026-05-01 11:43 | 47.22610 | 16.60843 | 24440 ft | 453 kts | 173° |
| 2026-05-01 11:43 | 47.19491 | 16.60986 | 24901 ft | 456 kts | 173° |
| 2026-05-01 11:44 | 47.13092 | 16.61265 | 25811 ft | 463 kts | 173° |
| 2026-05-01 11:44 | 47.09855 | 16.61401 | 26277 ft | 467 kts | 173° |
| 2026-05-01 11:44 | 47.06596 | 16.61543 | 26723 ft | 470 kts | 173° |
| 2026-05-01 11:44 | 47.03310 | 16.61687 | 27175 ft | 474 kts | 173° |
| 2026-05-01 11:45 | 47.00005 | 16.61830 | 27657 ft | 478 kts | 173° |
| 2026-05-01 11:45 | 46.96668 | 16.61972 | 28110 ft | 482 kts | 173° |
| 2026-05-01 11:45 | 46.93305 | 16.62116 | 28583 ft | 485 kts | 172° |
| 2026-05-01 11:45 | 46.89919 | 16.62263 | 29050 ft | 489 kts | 172° |
| 2026-05-01 11:46 | 46.86498 | 16.62410 | 29506 ft | 493 kts | 172° |
| 2026-05-01 11:46 | 46.83072 | 16.62715 | 29893 ft | 492 kts | 167° |
| 2026-05-01 11:46 | 46.79735 | 16.63713 | 30351 ft | 487 kts | 158° |
| 2026-05-01 11:46 | 46.76553 | 16.65350 | 30796 ft | 482 kts | 150° |
| 2026-05-01 11:47 | 46.73450 | 16.67214 | 31194 ft | 484 kts | 150° |
| 2026-05-01 11:47 | 46.70324 | 16.69060 | 31711 ft | 484 kts | 150° |
| 2026-05-01 11:47 | 46.67203 | 16.70891 | 32321 ft | 482 kts | 150° |
| 2026-05-01 11:47 | 46.64104 | 16.72732 | 32891 ft | 481 kts | 150° |
| 2026-05-01 11:48 | 46.61007 | 16.74578 | 33469 ft | 480 kts | 150° |
| 2026-05-01 11:48 | 46.57920 | 16.76401 | 34074 ft | 479 kts | 150° |
| 2026-05-01 11:48 | 46.54877 | 16.78188 | 34658 ft | 477 kts | 149° |
| 2026-05-01 11:48 | 46.51802 | 16.80000 | 35151 ft | 477 kts | 149° |
| 2026-05-01 11:49 | 46.48688 | 16.81842 | 35550 ft | 478 kts | 150° |
| 2026-05-01 11:49 | 46.45640 | 16.83636 | 35969 ft | 480 kts | 150° |
| 2026-05-01 11:49 | 46.42542 | 16.85451 | 36392 ft | 481 kts | 151° |
| 2026-05-01 11:49 | 46.39435 | 16.87271 | 36831 ft | 482 kts | 151° |
| 2026-05-01 11:50 | 46.36325 | 16.89096 | 37270 ft | 483 kts | 151° |
| 2026-05-01 11:50 | 46.33204 | 16.90924 | 37726 ft | 484 kts | 152° |
| 2026-05-01 11:50 | 46.30079 | 16.92748 | 38188 ft | 485 kts | 152° |
| 2026-05-01 11:50 | 46.26868 | 16.94360 | 38595 ft | 492 kts | 160° |
| 2026-05-01 11:51 | 46.23478 | 16.95265 | 39058 ft | 499 kts | 170° |
| 2026-05-01 11:51 | 46.19997 | 16.95402 | 39480 ft | 502 kts | 180° |
| 2026-05-01 11:51 | 46.16525 | 16.94787 | 39944 ft | 503 kts | 188° |
| 2026-05-01 11:51 | 46.13114 | 16.93708 | 40437 ft | 501 kts | 192° |
| 2026-05-01 11:52 | 46.09743 | 16.92493 | 40959 ft | 497 kts | 193° |
| 2026-05-01 11:52 | 46.06362 | 16.91493 | 41455 ft | 494 kts | 188° |
| 2026-05-01 11:52 | 46.02966 | 16.90782 | 41893 ft | 492 kts | 187° |
| 2026-05-01 11:52 | 45.99588 | 16.90032 | 42310 ft | 491 kts | 189° |
| 2026-05-01 11:53 | 45.96239 | 16.89079 | 42737 ft | 490 kts | 191° |
| 2026-05-01 11:53 | 45.92898 | 16.88117 | 43157 ft | 489 kts | 190° |
| 2026-05-01 11:53 | 45.89557 | 16.87293 | 43586 ft | 487 kts | 189° |
| 2026-05-01 11:53 | 45.86219 | 16.86502 | 44010 ft | 485 kts | 190° |
| 2026-05-01 11:54 | 45.82898 | 16.85634 | 44403 ft | 484 kts | 191° |
| 2026-05-01 11:54 | 45.79595 | 16.84737 | 44787 ft | 483 kts | 191° |
| 2026-05-01 11:54 | 45.76289 | 16.83887 | 45153 ft | 482 kts | 190° |
| 2026-05-01 11:54 | 45.72983 | 16.83068 | 45462 ft | 482 kts | 190° |
| 2026-05-01 11:55 | 45.69723 | 16.82238 | 45738 ft | 482 kts | 191° |
| 2026-05-01 11:55 | 45.66426 | 16.81376 | 46004 ft | 482 kts | 191° |
| 2026-05-01 11:55 | 45.63122 | 16.80523 | 46265 ft | 482 kts | 191° |
| 2026-05-01 11:55 | 45.59822 | 16.79690 | 46507 ft | 482 kts | 191° |
| 2026-05-01 11:56 | 45.56521 | 16.78854 | 46742 ft | 482 kts | 191° |
| 2026-05-01 11:56 | 45.53215 | 16.78006 | 46967 ft | 482 kts | 191° |
| 2026-05-01 11:56 | 45.49915 | 16.77161 | 47182 ft | 482 kts | 191° |
| 2026-05-01 11:56 | 45.46616 | 16.76325 | 47370 ft | 483 kts | 191° |
| 2026-05-01 11:57 | 45.41068 | 16.74919 | 47354 ft | 490 kts | 191° |
| 2026-05-01 11:57 | 45.33133 | 16.72907 | 47361 ft | 500 kts | 191° |
| 2026-05-01 11:58 | 45.26225 | 16.71163 | 47359 ft | 508 kts | 191° |
| 2026-05-01 11:59 | 45.15674 | 16.68506 | 47359 ft | 518 kts | 191° |
| 2026-05-01 11:59 | 45.08578 | 16.66725 | 47364 ft | 523 kts | 191° |
| 2026-05-01 12:00 | 44.97772 | 16.64021 | 47362 ft | 527 kts | 191° |
| 2026-05-01 12:01 | 44.86926 | 16.61317 | 47347 ft | 527 kts | 191° |
| 2026-05-01 12:01 | 44.79699 | 16.59522 | 47343 ft | 527 kts | 191° |
| 2026-05-01 12:02 | 44.72479 | 16.57733 | 47336 ft | 525 kts | 191° |
| 2026-05-01 12:02 | 44.65286 | 16.55954 | 47336 ft | 525 kts | 191° |
| 2026-05-01 12:03 | 44.58103 | 16.54183 | 47328 ft | 524 kts | 192° |
| 2026-05-01 12:03 | 44.52127 | 16.52714 | 47329 ft | 524 kts | 192° |
| 2026-05-01 12:04 | 44.44971 | 16.50958 | 47315 ft | 521 kts | 192° |
| 2026-05-01 12:04 | 44.36655 | 16.48921 | 47315 ft | 520 kts | 192° |
| 2026-05-01 12:05 | 44.30683 | 16.47463 | 47300 ft | 521 kts | 192° |
| 2026-05-01 12:05 | 44.19948 | 16.44850 | 47289 ft | 522 kts | 192° |
| 2026-05-01 12:06 | 44.12827 | 16.43120 | 47283 ft | 525 kts | 191° |
| 2026-05-01 12:06 | 44.05584 | 16.41367 | 47280 ft | 530 kts | 191° |
| 2026-05-01 12:07 | 43.98301 | 16.39608 | 47274 ft | 529 kts | 191° |
| 2026-05-01 12:07 | 43.94709 | 16.38744 | 47268 ft | 518 kts | 192° |
| 2026-05-01 12:07 | 43.91177 | 16.37894 | 47262 ft | 516 kts | 192° |
| 2026-05-01 12:08 | 43.84078 | 16.36184 | 47275 ft | 518 kts | 191° |
| 2026-05-01 12:08 | 43.76987 | 16.34488 | 47239 ft | 512 kts | 192° |
| 2026-05-01 12:09 | 43.70035 | 16.32821 | 47251 ft | 512 kts | 192° |
| 2026-05-01 12:09 | 43.62979 | 16.31139 | 47256 ft | 516 kts | 192° |
| 2026-05-01 12:10 | 43.52352 | 16.28609 | 47245 ft | 516 kts | 192° |
| 2026-05-01 12:11 | 43.41728 | 16.26091 | 47237 ft | 518 kts | 192° |
| 2026-05-01 12:11 | 43.34598 | 16.24406 | 47235 ft | 519 kts | 192° |
| 2026-05-01 12:12 | 43.27469 | 16.22724 | 47240 ft | 522 kts | 192° |
| 2026-05-01 12:12 | 43.20274 | 16.21032 | 47241 ft | 526 kts | 192° |
| 2026-05-01 12:13 | 43.13033 | 16.19333 | 47250 ft | 530 kts | 192° |
| 2026-05-01 12:13 | 43.05770 | 16.17632 | 47236 ft | 529 kts | 192° |
| 2026-05-01 12:14 | 42.98554 | 16.15948 | 47241 ft | 525 kts | 192° |
| 2026-05-01 12:14 | 42.91382 | 16.14275 | 47248 ft | 526 kts | 192° |
| 2026-05-01 12:15 | 42.84163 | 16.12598 | 47245 ft | 527 kts | 192° |
| 2026-05-01 12:15 | 42.76927 | 16.10919 | 47244 ft | 527 kts | 192° |
| 2026-05-01 12:16 | 42.69693 | 16.09246 | 47254 ft | 527 kts | 192° |
| 2026-05-01 12:16 | 42.62439 | 16.07572 | 47246 ft | 528 kts | 192° |
| 2026-05-01 12:17 | 42.55205 | 16.05905 | 47251 ft | 527 kts | 192° |
| 2026-05-01 12:17 | 42.48091 | 16.03690 | 47251 ft | 523 kts | 202° |
| 2026-05-01 12:18 | 42.41310 | 16.00254 | 47261 ft | 524 kts | 203° |
| 2026-05-01 12:18 | 42.34425 | 15.97022 | 47269 ft | 525 kts | 202° |
| 2026-05-01 12:19 | 42.27553 | 15.93674 | 47243 ft | 521 kts | 203° |
| 2026-05-01 12:19 | 42.20709 | 15.90404 | 47256 ft | 523 kts | 202° |
| 2026-05-01 12:20 | 42.13856 | 15.87120 | 47247 ft | 522 kts | 203° |
| 2026-05-01 12:20 | 42.07025 | 15.83856 | 47239 ft | 517 kts | 202° |
| 2026-05-01 12:21 | 42.00227 | 15.80617 | 47235 ft | 518 kts | 203° |
| 2026-05-01 12:21 | 41.93420 | 15.77376 | 47230 ft | 519 kts | 202° |
| 2026-05-01 12:22 | 41.86663 | 15.74175 | 47235 ft | 517 kts | 203° |
| 2026-05-01 12:22 | 41.79879 | 15.70959 | 47241 ft | 517 kts | 203° |
| 2026-05-01 12:23 | 41.73081 | 15.67751 | 47245 ft | 517 kts | 203° |
| 2026-05-01 12:23 | 41.66295 | 15.64550 | 47237 ft | 518 kts | 203° |
| 2026-05-01 12:24 | 41.59480 | 15.61348 | 47236 ft | 520 kts | 203° |
| 2026-05-01 12:24 | 41.52663 | 15.58148 | 47236 ft | 519 kts | 203° |
| 2026-05-01 12:25 | 41.42420 | 15.53356 | 47237 ft | 519 kts | 203° |
| 2026-05-01 12:26 | 41.35599 | 15.50173 | 47237 ft | 520 kts | 203° |
| 2026-05-01 12:26 | 41.25349 | 15.45404 | 47234 ft | 520 kts | 203° |
| 2026-05-01 12:27 | 41.15154 | 15.40676 | 47198 ft | 520 kts | 203° |
| 2026-05-01 12:28 | 41.05003 | 15.35984 | 47218 ft | 515 kts | 203° |
| 2026-05-01 12:29 | 40.94844 | 15.31305 | 47195 ft | 514 kts | 203° |
| 2026-05-01 12:29 | 40.84802 | 15.26691 | 47202 ft | 510 kts | 203° |
| 2026-05-01 12:30 | 40.74727 | 15.22084 | 47177 ft | 510 kts | 204° |
| 2026-05-01 12:31 | 40.68019 | 15.19018 | 47179 ft | 510 kts | 203° |
| 2026-05-01 12:31 | 40.61309 | 15.15963 | 47184 ft | 510 kts | 204° |
| 2026-05-01 12:32 | 40.54597 | 15.12911 | 47168 ft | 510 kts | 204° |
| 2026-05-01 12:32 | 40.44516 | 15.08341 | 47161 ft | 511 kts | 204° |
| 2026-05-01 12:33 | 40.37798 | 15.05304 | 47182 ft | 511 kts | 204° |
| 2026-05-01 12:33 | 40.31087 | 15.02276 | 47174 ft | 509 kts | 204° |
| 2026-05-01 12:34 | 40.24426 | 14.99276 | 47171 ft | 510 kts | 204° |
| 2026-05-01 12:34 | 40.17720 | 14.96263 | 47167 ft | 510 kts | 204° |
| 2026-05-01 12:35 | 40.11022 | 14.93262 | 47158 ft | 506 kts | 204° |
| 2026-05-01 12:35 | 40.04355 | 14.90275 | 47167 ft | 507 kts | 204° |
| 2026-05-01 12:36 | 39.97682 | 14.87298 | 47165 ft | 506 kts | 204° |
| 2026-05-01 12:36 | 39.91023 | 14.84330 | 47159 ft | 505 kts | 204° |
| 2026-05-01 12:37 | 39.84375 | 14.81373 | 47160 ft | 505 kts | 204° |
| 2026-05-01 12:37 | 39.77718 | 14.78420 | 47165 ft | 505 kts | 204° |
| 2026-05-01 12:38 | 39.71064 | 14.75472 | 47171 ft | 505 kts | 204° |
| 2026-05-01 12:38 | 39.64407 | 14.72530 | 47167 ft | 505 kts | 204° |
| 2026-05-01 12:39 | 39.57747 | 14.69592 | 47172 ft | 505 kts | 204° |
| 2026-05-01 12:39 | 39.51094 | 14.66665 | 47173 ft | 502 kts | 204° |
| 2026-05-01 12:40 | 39.44470 | 14.63754 | 47180 ft | 503 kts | 204° |
| 2026-05-01 12:40 | 39.37880 | 14.60866 | 47172 ft | 503 kts | 204° |
| 2026-05-01 12:41 | 39.31252 | 14.57965 | 47163 ft | 503 kts | 204° |
| 2026-05-01 12:41 | 39.24615 | 14.55067 | 47160 ft | 503 kts | 204° |
| 2026-05-01 12:42 | 39.17986 | 14.52178 | 47162 ft | 503 kts | 204° |
| 2026-05-01 12:42 | 39.11359 | 14.49296 | 47141 ft | 502 kts | 204° |
| 2026-05-01 12:43 | 39.04770 | 14.46437 | 47161 ft | 500 kts | 204° |
| 2026-05-01 12:43 | 38.98174 | 14.43578 | 47163 ft | 500 kts | 204° |
| 2026-05-01 12:44 | 38.91579 | 14.40728 | 47162 ft | 500 kts | 204° |
| 2026-05-01 12:45 | 38.78464 | 14.35074 | 47167 ft | 499 kts | 205° |
| 2026-05-01 12:45 | 38.71885 | 14.32247 | 47165 ft | 499 kts | 205° |
| 2026-05-01 12:46 | 38.65313 | 14.29428 | 47159 ft | 497 kts | 205° |
| 2026-05-01 12:46 | 38.58747 | 14.26615 | 47160 ft | 498 kts | 205° |
| 2026-05-01 12:47 | 38.52169 | 14.23805 | 47160 ft | 498 kts | 205° |
| 2026-05-01 12:47 | 38.45597 | 14.21002 | 47161 ft | 496 kts | 205° |
| 2026-05-01 12:48 | 38.39084 | 14.18230 | 47153 ft | 497 kts | 205° |
| 2026-05-01 12:48 | 38.32526 | 14.15443 | 47153 ft | 497 kts | 205° |
| 2026-05-01 12:49 | 38.25968 | 14.12663 | 47126 ft | 494 kts | 204° |
| 2026-05-01 12:49 | 38.22775 | 14.11320 | 47077 ft | 473 kts | 205° |
| 2026-05-01 12:49 | 38.19712 | 14.10031 | 46948 ft | 456 kts | 205° |
| 2026-05-01 12:50 | 38.16742 | 14.08767 | 46759 ft | 445 kts | 205° |
| 2026-05-01 12:50 | 38.13822 | 14.07524 | 46558 ft | 441 kts | 205° |
| 2026-05-01 12:50 | 38.10904 | 14.06289 | 46374 ft | 444 kts | 205° |
| 2026-05-01 12:50 | 38.07955 | 14.05048 | 46226 ft | 448 kts | 205° |
| 2026-05-01 12:51 | 38.04995 | 14.03805 | 46067 ft | 451 kts | 205° |
| 2026-05-01 12:51 | 38.03020 | 14.02972 | 45938 ft | 453 kts | 205° |
| 2026-05-01 12:51 | 37.97044 | 14.00461 | 45671 ft | 450 kts | 205° |
| 2026-05-01 12:52 | 37.93102 | 13.98808 | 45534 ft | 447 kts | 205° |
| 2026-05-01 12:52 | 37.88098 | 13.96698 | 45167 ft | 458 kts | 205° |
| 2026-05-01 12:52 | 37.85045 | 13.95419 | 45156 ft | 466 kts | 205° |
| 2026-05-01 12:53 | 37.78800 | 13.92815 | 45146 ft | 478 kts | 204° |
| 2026-05-01 12:53 | 37.75635 | 13.91490 | 45158 ft | 476 kts | 204° |
| 2026-05-01 12:53 | 37.72556 | 13.90217 | 45156 ft | 455 kts | 204° |
| 2026-05-01 12:54 | 37.69589 | 13.88987 | 44685 ft | 444 kts | 205° |
| 2026-05-01 12:54 | 37.63764 | 13.86534 | 42682 ft | 445 kts | 205° |
| 2026-05-01 12:54 | 37.60784 | 13.85302 | 41691 ft | 445 kts | 205° |
| 2026-05-01 12:55 | 37.54931 | 13.82874 | 39664 ft | 446 kts | 205° |
| 2026-05-01 12:55 | 37.51972 | 13.81643 | 38649 ft | 447 kts | 205° |
| 2026-05-01 12:55 | 37.49018 | 13.80419 | 37427 ft | 447 kts | 206° |
| 2026-05-01 12:56 | 37.46065 | 13.79200 | 36174 ft | 447 kts | 206° |
| 2026-05-01 12:56 | 37.43113 | 13.77977 | 34926 ft | 446 kts | 207° |
| 2026-05-01 12:56 | 37.40170 | 13.76758 | 33617 ft | 446 kts | 207° |
| 2026-05-01 12:56 | 37.37218 | 13.75536 | 31918 ft | 448 kts | 207° |
| 2026-05-01 12:57 | 37.34230 | 13.74297 | 30064 ft | 457 kts | 207° |
| 2026-05-01 12:57 | 37.28241 | 13.71847 | 27326 ft | 442 kts | 206° |
| 2026-05-01 12:57 | 37.25339 | 13.70652 | 26014 ft | 435 kts | 206° |
| 2026-05-01 12:58 | 37.22486 | 13.69467 | 24823 ft | 427 kts | 206° |
| 2026-05-01 12:58 | 37.19678 | 13.68307 | 23691 ft | 428 kts | 205° |
| 2026-05-01 12:58 | 37.16879 | 13.67161 | 22976 ft | 419 kts | 205° |
| 2026-05-01 12:59 | 37.11063 | 13.66429 | 22077 ft | 438 kts | 178° |
| 2026-05-01 12:59 | 37.08109 | 13.67476 | 21660 ft | 445 kts | 164° |
| 2026-05-01 12:59 | 37.02397 | 13.70454 | 20950 ft | 441 kts | 162° |
| 2026-05-01 13:00 | 36.96748 | 13.73343 | 20231 ft | 436 kts | 162° |
| 2026-05-01 13:00 | 36.93951 | 13.74777 | 19873 ft | 433 kts | 162° |
| 2026-05-01 13:01 | 36.88416 | 13.77634 | 19136 ft | 426 kts | 162° |
| 2026-05-01 13:01 | 36.85678 | 13.79031 | 18785 ft | 424 kts | 162° |
| 2026-05-01 13:01 | 36.80254 | 13.81808 | 18039 ft | 419 kts | 162° |
| 2026-05-01 13:02 | 36.77564 | 13.83185 | 17645 ft | 416 kts | 162° |
| 2026-05-01 13:07 | 36.27189 | 14.08751 | 7903 ft | 283 kts | 159° |
| 2026-05-01 13:07 | 36.25387 | 14.09656 | 7401 ft | 277 kts | 159° |
| 2026-05-01 13:07 | 36.23630 | 14.10540 | 6917 ft | 271 kts | 158° |
| 2026-05-01 13:08 | 36.21909 | 14.11406 | 6439 ft | 262 kts | 158° |
| 2026-05-01 13:08 | 36.20251 | 14.12239 | 6124 ft | 257 kts | 157° |
| 2026-05-01 13:08 | 36.18603 | 14.13068 | 5809 ft | 254 kts | 157° |
| 2026-05-01 13:08 | 36.16893 | 14.13520 | 5447 ft | 253 kts | 179° |
| 2026-05-01 13:09 | 36.15148 | 14.13437 | 5306 ft | 252 kts | 184° |
| 2026-05-01 13:09 | 36.13399 | 14.13308 | 5173 ft | 253 kts | 184° |
| 2026-05-01 13:09 | 36.11651 | 14.13188 | 5040 ft | 251 kts | 184° |
| 2026-05-01 13:09 | 36.09901 | 14.13063 | 4902 ft | 251 kts | 183° |
| 2026-05-01 13:10 | 36.08154 | 14.12933 | 4754 ft | 252 kts | 183° |
| 2026-05-01 13:10 | 36.06403 | 14.12795 | 4603 ft | 252 kts | 184° |
| 2026-05-01 13:10 | 36.04664 | 14.12657 | 4449 ft | 249 kts | 184° |
| 2026-05-01 13:10 | 36.02940 | 14.12521 | 4296 ft | 249 kts | 183° |
| 2026-05-01 13:11 | 36.01233 | 14.12384 | 4144 ft | 248 kts | 183° |
| 2026-05-01 13:11 | 35.99486 | 14.12239 | 3990 ft | 248 kts | 184° |
| 2026-05-01 13:11 | 35.97771 | 14.12097 | 3839 ft | 244 kts | 183° |
| 2026-05-01 13:11 | 35.96099 | 14.11950 | 3693 ft | 248 kts | 184° |
| 2026-05-01 13:12 | 35.94380 | 14.11793 | 3544 ft | 247 kts | 183° |
| 2026-05-01 13:12 | 35.92678 | 14.11631 | 3391 ft | 243 kts | 183° |
| 2026-05-01 13:12 | 35.90986 | 14.11462 | 3245 ft | 246 kts | 183° |
| 2026-05-01 13:12 | 35.89299 | 14.11283 | 3089 ft | 239 kts | 183° |
| 2026-05-01 13:13 | 35.87626 | 14.11099 | 2986 ft | 244 kts | 183° |
| 2026-05-01 13:13 | 35.85975 | 14.10900 | 2985 ft | 229 kts | 184° |
| 2026-05-01 13:13 | 35.84431 | 14.10720 | 2981 ft | 222 kts | 184° |
| 2026-05-01 13:13 | 35.82974 | 14.11113 | 2880 ft | 214 kts | 143° |
| 2026-05-01 13:14 | 35.82047 | 14.12470 | 2955 ft | 209 kts | 119° |
| 2026-05-01 13:14 | 35.81146 | 14.13910 | 3002 ft | 214 kts | 130° |
| 2026-05-01 13:14 | 35.80022 | 14.15126 | 3004 ft | 216 kts | 137° |
| 2026-05-01 13:14 | 35.78852 | 14.16280 | 3004 ft | 215 kts | 137° |
| 2026-05-01 13:15 | 35.77730 | 14.17470 | 3002 ft | 215 kts | 135° |
| 2026-05-01 13:15 | 35.76593 | 14.18699 | 3002 ft | 215 kts | 135° |
| 2026-05-01 13:15 | 35.75483 | 14.19884 | 2991 ft | 214 kts | 136° |
| 2026-05-01 13:15 | 35.74351 | 14.21083 | 2987 ft | 214 kts | 135° |
| 2026-05-01 13:16 | 35.73272 | 14.22305 | 2966 ft | 207 kts | 127° |
| 2026-05-01 13:16 | 35.72751 | 14.23895 | 2981 ft | 203 kts | 95° |
| 2026-05-01 13:16 | 35.72935 | 14.25552 | 2975 ft | 193 kts | 66° |
| 2026-05-01 13:17 | 35.75077 | 14.29381 | 3006 ft | 174 kts | 54° |
| 2026-05-01 13:17 | 35.75785 | 14.30594 | 3007 ft | 171 kts | 53° |
| 2026-05-01 13:18 | 35.77188 | 14.33003 | 2864 ft | 178 kts | 53° |
| 2026-05-01 13:18 | 35.77902 | 14.34228 | 2630 ft | 176 kts | 54° |
| 2026-05-01 13:18 | 35.78584 | 14.35399 | 2388 ft | 168 kts | 54° |
| 2026-05-01 13:18 | 35.79262 | 14.36566 | 2170 ft | 170 kts | 55° |
| 2026-05-01 13:19 | 35.79896 | 14.37652 | 1946 ft | 139 kts | 56° |
| 2026-05-01 13:19 | 35.80406 | 14.38532 | 1747 ft | 117 kts | 57° |
| 2026-05-01 13:19 | 35.81330 | 14.40146 | 1434 ft | 116 kts | 57° |
| 2026-05-01 13:20 | 35.81800 | 14.40949 | 1293 ft | 114 kts | 57° |
| 2026-05-01 13:20 | 35.82266 | 14.41753 | 1143 ft | 115 kts | 57° |
| 2026-05-01 13:20 | 35.82725 | 14.42542 | 986 ft | 113 kts | 57° |
| 2026-05-01 13:21 | 35.83638 | 14.44088 | 706 ft | 108 kts | 56° |
| 2026-05-01 13:21 | 35.84076 | 14.44856 | 567 ft | 110 kts | 58° |
| 2026-05-01 13:21 | 35.84528 | 14.45636 | 408 ft | 113 kts | 55° |
| 2026-05-01 13:21 | 35.84985 | 14.46425 | 279 ft | 111 kts | 58° |
| 2026-05-01 13:22 | 35.85368 | 14.47085 | 257 ft | 68 kts | 53° |
| 2026-05-01 13:22 | 35.85535 | 14.47371 | 252 ft | 24 kts | 54° |
| 2026-05-01 13:22 | 35.85631 | 14.47505 | 250 ft | 10 kts | 7° |
| 2026-05-01 13:22 | 35.85701 | 14.47501 | 250 ft | 10 kts | 358° |
| 2026-05-01 13:23 | 35.85761 | 14.47499 | 251 ft | 8 kts | 358° |
| 2026-05-01 13:23 | 35.85767 | 14.47498 | 251 ft | 0 kts | 359° |
| 2026-05-01 13:24 | 35.85781 | 14.47499 | 251 ft | 4 kts | 1° |
| 2026-05-01 13:24 | 35.85821 | 14.47520 | 251 ft | 7 kts | 47° |
| 2026-05-01 13:25 | 35.85859 | 14.47627 | 250 ft | 7 kts | 70° |
| 2026-05-01 13:25 | 35.85880 | 14.47674 | 250 ft | 5 kts | 34° |
| 2026-05-01 13:25 | 35.85903 | 14.47676 | 250 ft | 3 kts | 4° |
| 2026-05-01 13:25 | 35.85915 | 14.47683 | 250 ft | 1 kts | 40° |
| 2026-05-01 13:26 | 35.85920 | 14.47688 | 250 ft | 1 kts | 44° |
| 2026-05-01 13:26 | 35.85922 | 14.47692 | 250 ft | 0 kts | 44° |